Time;durP1;ratioP1;P1;durP2;ratioP2;P2;SDS_P1;SDS_P2;PMS_P1;PMS_P2;Temp;Humidity;BMP_temperature;BMP_pressure;BME280_temperature;BME280_humidity;BME280_pressure;Samples;Min_cycle;Max_cycle;Signal;HPM_P1;HPM_P2
2023/09/04 00:00:58;;;;;;;0.50;0.50;;;21.40;64.70;;;;;;6197413;28;20033;-68
2023/09/04 00:03:59;;;;;;;0.70;0.52;;;21.40;64.70;;;;;;6197247;28;20026;-69
2023/09/04 00:07:00;;;;;;;0.68;0.47;;;21.40;64.70;;;;;;6197050;28;20266;-69
2023/09/04 00:10:00;;;;;;;1.15;0.90;;;21.40;64.70;;;;;;6197101;28;20027;-68
2023/09/04 00:13:01;;;;;;;1.83;0.75;;;21.40;64.70;;;;;;6197166;28;20058;-69
2023/09/04 00:16:02;;;;;;;1.65;0.65;;;21.40;64.70;;;;;;6196685;28;20070;-68
2023/09/04 00:19:03;;;;;;;1.20;0.70;;;21.40;64.70;;;;;;6197215;28;20041;-68
2023/09/04 00:22:04;;;;;;;0.90;0.50;;;21.40;64.80;;;;;;6196285;28;20378;-68
2023/09/04 00:25:05;;;;;;;0.70;0.60;;;21.40;64.70;;;;;;6196934;28;20366;-68
2023/09/04 00:28:06;;;;;;;0.57;0.57;;;21.40;64.70;;;;;;6196302;28;20026;-68
2023/09/04 00:31:06;;;;;;;0.68;0.55;;;21.40;64.70;;;;;;6196853;28;20057;-68
2023/09/04 00:34:07;;;;;;;0.80;0.70;;;21.40;64.70;;;;;;6196697;28;20057;-68
2023/09/04 00:37:09;;;;;;;0.68;0.43;;;21.50;64.90;;;;;;6195473;28;20504;-68
2023/09/04 00:40:10;;;;;;;0.85;0.75;;;21.40;64.70;;;;;;6196212;28;20065;-69
2023/09/04 00:43:11;;;;;;;0.90;0.57;;;21.40;64.80;;;;;;6196453;28;20493;-68
2023/09/04 00:46:12;;;;;;;0.70;0.60;;;21.40;64.70;;;;;;6196011;28;20026;-68
2023/09/04 00:49:13;;;;;;;0.63;0.50;;;21.40;64.70;;;;;;6196474;28;20061;-68
2023/09/04 00:52:15;;;;;;;0.90;0.65;;;21.40;64.80;;;;;;6196029;28;20061;-68
2023/09/04 00:55:16;;;;;;;0.90;0.77;;;21.40;64.80;;;;;;6196105;28;20326;-68
2023/09/04 00:58:17;;;;;;;0.70;0.60;;;21.40;64.70;;;;;;6196049;28;20026;-68
2023/09/04 01:01:18;;;;;;;0.65;0.50;;;21.40;64.70;;;;;;6195463;28;20019;-68
2023/09/04 01:04:20;;;;;;;0.98;0.80;;;21.40;64.80;;;;;;6196077;28;20041;-68
2023/09/04 01:07:20;;;;;;;1.10;0.60;;;21.40;64.70;;;;;;6195915;28;20397;-68
2023/09/04 01:10:21;;;;;;;0.85;0.65;;;21.40;64.80;;;;;;6196007;28;20064;-68
2023/09/04 01:13:31;;;;;;;1.02;0.80;;;21.40;64.80;;;;;;6195706;28;20046;-69
2023/09/04 01:16:32;;;;;;;0.80;0.60;;;21.40;64.80;;;;;;6195527;28;20026;-68
2023/09/04 01:19:37;;;;;;;0.75;0.60;;;21.40;64.70;;;;;;6195385;28;20030;-68
2023/09/04 01:22:37;;;;;;;1.37;0.80;;;21.40;64.70;;;;;;6195221;28;20488;-68
2023/09/04 01:26:03;;;;;;;1.00;0.68;;;21.40;64.70;;;;;;6194929;28;20297;-68
2023/09/04 01:29:07;;;;;;;0.85;0.70;;;21.40;64.70;;;;;;6195182;28;20057;-68
2023/09/04 01:32:16;;;;;;;0.80;0.70;;;21.40;64.70;;;;;;6195296;28;20034;-68
2023/09/04 01:35:22;;;;;;;0.88;0.60;;;21.40;64.80;;;;;;6195017;28;20080;-68
2023/09/04 01:38:23;;;;;;;0.88;0.70;;;21.40;64.80;;;;;;6195110;28;20409;-68
2023/09/04 01:41:24;;;;;;;0.77;0.40;;;21.40;64.80;;;;;;6194854;28;20029;-68
2023/09/04 01:44:25;;;;;;;1.20;0.60;;;21.40;64.80;;;;;;6195132;28;20026;-68
2023/09/04 01:47:26;;;;;;;0.50;0.50;;;21.40;64.70;;;;;;6194769;28;20392;-68
2023/09/04 01:50:26;;;;;;;1.13;0.60;;;21.40;64.80;;;;;;6194787;28;20030;-68
2023/09/04 01:53:27;;;;;;;1.00;0.63;;;21.40;64.80;;;;;;6194615;28;20065;-68
2023/09/04 01:56:27;;;;;;;0.95;0.65;;;21.40;64.80;;;;;;6194543;28;20030;-68
2023/09/04 01:59:28;;;;;;;0.80;0.65;;;21.40;64.80;;;;;;6194648;28;20537;-68
2023/09/04 02:02:28;;;;;;;1.00;0.80;;;21.40;64.70;;;;;;6195285;28;20026;-68
2023/09/04 02:05:29;;;;;;;0.80;0.70;;;21.40;64.80;;;;;;6194519;28;20042;-68
2023/09/04 02:08:30;;;;;;;1.10;0.50;;;21.40;64.70;;;;;;6194308;28;20023;-68
2023/09/04 02:11:30;;;;;;;0.80;0.60;;;21.40;64.80;;;;;;6193942;28;20030;-68
2023/09/04 02:14:31;;;;;;;0.80;0.50;;;21.40;64.80;;;;;;6193743;28;20105;-68
2023/09/04 02:17:32;;;;;;;0.65;0.60;;;21.40;64.90;;;;;;6194318;28;20077;-68
2023/09/04 02:20:32;;;;;;;0.45;0.40;;;21.40;64.80;;;;;;6194539;28;20445;-69
2023/09/04 02:23:33;;;;;;;0.65;0.60;;;21.40;64.80;;;;;;6193870;28;20019;-68
2023/09/04 02:26:34;;;;;;;0.70;0.52;;;21.40;64.90;;;;;;6190744;28;20042;-68
2023/09/04 02:29:34;;;;;;;0.50;0.50;;;21.40;64.80;;;;;;6193969;28;20057;-68
2023/09/04 02:32:35;;;;;;;0.77;0.73;;;21.40;64.80;;;;;;6193553;28;20026;-69
2023/09/04 02:35:35;;;;;;;1.30;0.80;;;21.40;64.90;;;;;;6193731;28;20117;-68
2023/09/04 02:38:36;;;;;;;0.57;0.55;;;21.40;64.80;;;;;;6193829;28;20034;-68
2023/09/04 02:41:37;;;;;;;0.50;0.50;;;21.40;64.90;;;;;;6193907;28;20030;-68
2023/09/04 02:44:37;;;;;;;0.40;0.40;;;21.40;64.80;;;;;;6193740;28;20030;-68
2023/09/04 02:47:38;;;;;;;0.82;0.60;;;21.40;64.90;;;;;;6193558;28;20022;-68
2023/09/04 02:50:40;;;;;;;1.05;0.60;;;21.40;64.80;;;;;;6194183;28;20097;-68
2023/09/04 02:53:40;;;;;;;0.75;0.55;;;21.40;64.90;;;;;;6193466;28;20485;-68
2023/09/04 02:56:41;;;;;;;0.73;0.60;;;21.40;64.80;;;;;;6193496;28;20026;-68
2023/09/04 02:59:41;;;;;;;0.85;0.57;;;21.40;64.90;;;;;;6196466;28;20395;-67
2023/09/04 03:02:42;;;;;;;0.70;0.60;;;21.40;64.80;;;;;;6201116;28;20022;-68
2023/09/04 03:05:43;;;;;;;0.52;0.50;;;21.40;64.80;;;;;;6202085;28;20030;-68
2023/09/04 03:08:44;;;;;;;0.90;0.60;;;21.40;64.80;;;;;;6200769;28;20034;-68
2023/09/04 03:11:45;;;;;;;0.65;0.60;;;21.40;64.80;;;;;;6201565;28;20105;-68
2023/09/04 03:14:45;;;;;;;0.50;0.50;;;21.40;64.80;;;;;;6201017;28;20057;-69
2023/09/04 03:17:46;;;;;;;0.60;0.40;;;21.40;64.80;;;;;;6200711;28;20473;-68
2023/09/04 03:20:47;;;;;;;1.02;0.60;;;21.40;64.80;;;;;;6201749;28;20023;-67
2023/09/04 03:23:52;;;;;;;0.60;0.50;;;21.40;64.80;;;;;;6200917;28;20077;-67
2023/09/04 03:26:53;;;;;;;0.77;0.63;;;21.40;64.80;;;;;;6201637;28;20030;-67
2023/09/04 03:29:53;;;;;;;0.70;0.60;;;21.40;64.80;;;;;;6201801;28;20419;-68
2023/09/04 03:32:54;;;;;;;0.60;0.50;;;21.40;64.80;;;;;;6200966;28;20464;-70
2023/09/04 03:35:57;;;;;;;0.85;0.63;;;21.40;64.80;;;;;;6201410;28;20045;-70
2023/09/04 03:38:58;;;;;;;0.95;0.70;;;21.40;64.80;;;;;;6200920;28;20081;-70
2023/09/04 03:41:58;;;;;;;0.50;0.40;;;21.40;64.80;;;;;;6201320;28;20057;-70
2023/09/04 03:44:59;;;;;;;0.52;0.52;;;21.40;64.80;;;;;;6200752;28;20054;-70
2023/09/04 03:48:00;;;;;;;0.60;0.55;;;21.40;64.80;;;;;;6200739;28;20470;-70
2023/09/04 03:51:01;;;;;;;0.55;0.50;;;21.40;64.80;;;;;;6201600;28;20473;-69
2023/09/04 03:54:02;;;;;;;0.93;0.60;;;21.40;64.80;;;;;;6200851;28;20037;-70
2023/09/04 03:57:03;;;;;;;0.45;0.43;;;21.40;64.80;;;;;;6201027;28;20389;-69
2023/09/04 04:00:34;;;;;;;0.50;0.50;;;21.40;64.90;;;;;;6201068;28;20097;-70
2023/09/04 04:03:35;;;;;;;0.43;0.43;;;21.40;64.90;;;;;;6200500;28;20026;-70
2023/09/04 04:06:35;;;;;;;0.52;0.52;;;21.40;64.90;;;;;;6201219;28;20026;-70
2023/09/04 04:09:36;;;;;;;0.52;0.50;;;21.40;64.80;;;;;;6200372;28;20026;-69
2023/09/04 04:12:37;;;;;;;0.50;0.43;;;21.40;64.90;;;;;;6196373;28;20093;-67
2023/09/04 04:15:41;;;;;;;1.02;0.70;;;21.40;64.80;;;;;;6196994;28;20038;-67
2023/09/04 04:18:42;;;;;;;0.60;0.50;;;21.40;64.80;;;;;;6197151;28;20039;-70
2023/09/04 04:21:42;;;;;;;0.85;0.60;;;21.40;64.80;;;;;;6197519;28;20381;-70
2023/09/04 04:24:43;;;;;;;0.52;0.50;;;21.40;64.90;;;;;;6196197;28;20041;-70
2023/09/04 04:27:45;;;;;;;0.70;0.57;;;21.40;64.80;;;;;;6197351;28;20478;-70
2023/09/04 04:30:46;;;;;;;0.60;0.60;;;21.40;64.80;;;;;;6180972;28;20034;-70
2023/09/04 04:33:47;;;;;;;0.70;0.50;;;21.40;64.80;;;;;;6194315;28;20049;-70
2023/09/04 04:36:54;;;;;;;0.65;0.50;;;21.40;64.90;;;;;;6196806;28;20479;-70
2023/09/04 04:39:55;;;;;;;0.93;0.60;;;21.40;64.80;;;;;;6194777;28;20401;-70
2023/09/04 04:42:56;;;;;;;0.65;0.45;;;21.40;64.80;;;;;;6194620;28;20023;-69
2023/09/04 04:45:57;;;;;;;0.98;0.57;;;21.40;64.80;;;;;;6194638;28;20549;-71
2023/09/04 04:48:58;;;;;;;0.52;0.52;;;21.40;64.80;;;;;;6202949;28;20032;-70
2023/09/04 04:51:59;;;;;;;0.50;0.50;;;21.40;64.80;;;;;;6199581;28;20038;-67
2023/09/04 04:54:59;;;;;;;0.60;0.50;;;21.40;64.80;;;;;;6190302;28;20063;-68
2023/09/04 04:58:00;;;;;;;0.47;0.40;;;21.40;64.80;;;;;;6203449;28;20271;-68
2023/09/04 05:01:00;;;;;;;0.80;0.68;;;21.40;64.80;;;;;;6183300;28;20085;-68
2023/09/04 05:04:01;;;;;;;0.70;0.55;;;21.40;64.80;;;;;;6191325;28;20026;-68
2023/09/04 05:07:02;;;;;;;0.40;0.40;;;21.40;64.80;;;;;;6194830;28;20377;-68
2023/09/04 05:10:03;;;;;;;0.85;0.60;;;21.40;64.80;;;;;;6212200;28;20060;-68
2023/09/04 05:13:03;;;;;;;0.73;0.50;;;21.40;64.80;;;;;;6196400;28;20118;-68
2023/09/04 05:16:05;;;;;;;0.60;0.40;;;21.40;64.80;;;;;;6195710;28;20046;-68
2023/09/04 05:19:06;;;;;;;0.43;0.43;;;21.40;64.80;;;;;;6203686;28;20480;-68
2023/09/04 05:22:08;;;;;;;0.65;0.60;;;21.40;64.80;;;;;;6184116;28;20325;-67
2023/09/04 05:25:09;;;;;;;1.65;0.50;;;21.40;64.80;;;;;;6207118;28;20050;-68
2023/09/04 05:28:09;;;;;;;0.55;0.55;;;21.40;64.90;;;;;;6193555;28;20038;-68
2023/09/04 05:31:10;;;;;;;0.85;0.63;;;21.40;64.80;;;;;;6191017;28;20057;-68
2023/09/04 05:34:11;;;;;;;0.60;0.50;;;21.40;64.80;;;;;;6202864;28;20045;-68
2023/09/04 05:37:12;;;;;;;0.55;0.55;;;21.40;64.80;;;;;;6193187;28;20072;-68
2023/09/04 05:40:12;;;;;;;1.05;0.65;;;21.40;64.80;;;;;;6183772;28;20417;-67
2023/09/04 05:43:13;;;;;;;0.60;0.52;;;21.40;64.80;;;;;;6185146;28;20064;-67
2023/09/04 05:46:13;;;;;;;0.60;0.55;;;21.40;64.80;;;;;;6216253;28;20267;-67
2023/09/04 05:49:14;;;;;;;1.52;0.50;;;21.40;64.80;;;;;;6185098;28;20041;-66
2023/09/04 05:52:15;;;;;;;0.40;0.38;;;21.40;64.80;;;;;;6192822;28;20393;-68
2023/09/04 05:55:15;;;;;;;0.77;0.68;;;21.40;64.90;;;;;;6193171;28;20030;-68
2023/09/04 05:58:16;;;;;;;0.50;0.50;;;21.40;64.80;;;;;;6193348;28;20488;-68
2023/09/04 06:01:18;;;;;;;0.70;0.60;;;21.40;64.80;;;;;;6192439;28;20026;-68
2023/09/04 06:04:19;;;;;;;0.57;0.50;;;21.40;64.80;;;;;;6194039;28;20065;-68
2023/09/04 06:07:19;;;;;;;0.77;0.50;;;21.40;64.70;;;;;;6203072;28;20388;-68
2023/09/04 06:10:20;;;;;;;0.85;0.50;;;21.50;64.80;;;;;;6194742;28;20034;-67
2023/09/04 06:13:20;;;;;;;0.60;0.55;;;21.50;64.70;;;;;;6195018;28;20058;-68
2023/09/04 06:16:22;;;;;;;0.55;0.50;;;21.50;64.70;;;;;;6194386;28;20164;-67
2023/09/04 06:19:23;;;;;;;0.47;0.40;;;21.50;64.80;;;;;;6194750;28;20022;-68
2023/09/04 06:22:23;;;;;;;1.10;0.47;;;21.50;64.90;;;;;;6200620;28;20113;-68
2023/09/04 06:25:24;;;;;;;0.57;0.50;;;21.40;64.80;;;;;;6201083;28;20030;-67
2023/09/04 06:28:26;;;;;;;0.90;0.70;;;21.40;64.80;;;;;;6194470;28;20233;-67
2023/09/04 06:31:27;;;;;;;0.52;0.50;;;21.40;64.80;;;;;;6201376;28;20162;-68
2023/09/04 06:34:28;;;;;;;0.45;0.45;;;21.40;64.80;;;;;;6192457;28;20335;-67
2023/09/04 06:37:29;;;;;;;0.60;0.47;;;21.40;64.80;;;;;;6194510;28;20041;-67
2023/09/04 06:40:29;;;;;;;0.80;0.50;;;21.40;64.90;;;;;;6199090;28;20476;-68
2023/09/04 06:43:30;;;;;;;0.55;0.50;;;21.40;64.80;;;;;;6195534;28;20015;-69
2023/09/04 06:46:31;;;;;;;0.60;0.60;;;21.40;64.80;;;;;;6195988;28;20046;-67
2023/09/04 06:49:32;;;;;;;0.85;0.68;;;21.40;64.80;;;;;;6195741;28;20023;-67
2023/09/04 06:52:33;;;;;;;0.60;0.43;;;21.40;64.80;;;;;;6195559;28;20073;-67
2023/09/04 06:55:34;;;;;;;0.60;0.50;;;21.40;64.80;;;;;;6195391;28;20034;-67
2023/09/04 06:58:35;;;;;;;0.60;0.60;;;21.40;64.80;;;;;;6196249;28;20037;-67
2023/09/04 07:01:35;;;;;;;0.50;0.50;;;21.40;64.80;;;;;;6195568;28;20034;-67
2023/09/04 07:04:36;;;;;;;0.63;0.57;;;21.40;64.80;;;;;;6195582;28;20511;-67
2023/09/04 07:07:37;;;;;;;0.93;0.45;;;21.40;64.80;;;;;;6195749;28;20026;-67
2023/09/04 07:10:38;;;;;;;0.70;0.60;;;21.40;64.90;;;;;;6195773;28;20475;-67
2023/09/04 07:13:38;;;;;;;0.85;0.68;;;21.40;64.90;;;;;;6195499;28;20125;-67
2023/09/04 07:16:39;;;;;;;0.88;0.57;;;21.40;64.90;;;;;;6194871;28;20069;-67
2023/09/04 07:19:40;;;;;;;0.50;0.50;;;21.40;64.90;;;;;;6195574;28;20022;-68
2023/09/04 07:22:40;;;;;;;0.73;0.70;;;21.40;65.00;;;;;;6195985;28;20027;-68
2023/09/04 07:25:41;;;;;;;0.93;0.60;;;21.50;65.20;;;;;;6195257;28;20080;-68
2023/09/04 07:28:41;;;;;;;0.57;0.50;;;21.50;65.20;;;;;;6195853;28;20381;-68
2023/09/04 07:31:42;;;;;;;0.60;0.57;;;21.50;65.30;;;;;;6194971;28;20109;-68
2023/09/04 07:34:43;;;;;;;0.93;0.50;;;21.40;65.20;;;;;;6195414;28;20042;-68
2023/09/04 07:37:45;;;;;;;1.45;0.57;;;21.40;65.30;;;;;;6195333;28;20117;-68
2023/09/04 07:40:45;;;;;;;0.85;0.47;;;21.40;65.30;;;;;;6195357;28;20041;-68
2023/09/04 07:43:46;;;;;;;0.63;0.63;;;21.50;65.40;;;;;;6195318;28;20477;-68
2023/09/04 07:46:46;;;;;;;0.85;0.50;;;21.50;65.40;;;;;;6197527;28;20056;-68
2023/09/04 07:49:47;;;;;;;0.60;0.50;;;21.50;65.40;;;;;;6200041;28;20029;-68
2023/09/04 07:52:48;;;;;;;0.43;0.43;;;21.50;65.40;;;;;;6199654;28;20023;-68
2023/09/04 07:55:49;;;;;;;0.70;0.50;;;21.50;65.30;;;;;;6198570;28;20068;-68
2023/09/04 07:58:50;;;;;;;0.50;0.45;;;21.50;65.30;;;;;;6199655;28;20025;-68
2023/09/04 08:01:50;;;;;;;0.75;0.65;;;21.50;65.30;;;;;;6199389;28;20038;-68
2023/09/04 08:04:51;;;;;;;1.05;0.63;;;21.50;65.30;;;;;;6199484;28;20065;-69
2023/09/04 08:07:52;;;;;;;0.80;0.52;;;21.50;65.30;;;;;;6199381;28;20077;-68
2023/09/04 08:10:53;;;;;;;0.73;0.43;;;21.50;65.30;;;;;;6199684;28;20080;-67
2023/09/04 08:13:54;;;;;;;0.55;0.35;;;21.50;65.30;;;;;;6199148;28;20039;-68
2023/09/04 08:16:54;;;;;;;1.45;0.90;;;21.50;65.30;;;;;;6199043;28;20096;-68
2023/09/04 08:19:55;;;;;;;1.88;1.08;;;21.50;65.30;;;;;;6198908;28;20034;-68
2023/09/04 08:22:55;;;;;;;0.75;0.60;;;21.50;65.30;;;;;;6198839;28;20022;-68
2023/09/04 08:26:03;;;;;;;0.40;0.40;;;21.50;65.20;;;;;;6199166;28;20038;-68
2023/09/04 08:29:04;;;;;;;0.70;0.60;;;21.50;65.30;;;;;;6199390;28;20409;-68
2023/09/04 08:32:05;;;;;;;0.95;0.65;;;21.50;65.30;;;;;;6198174;28;20097;-68
2023/09/04 08:35:06;;;;;;;0.80;0.47;;;21.50;65.30;;;;;;6198471;28;20049;-68
2023/09/04 08:38:07;;;;;;;1.05;0.70;;;21.50;65.30;;;;;;6197969;28;20045;-67
2023/09/04 08:41:09;;;;;;;0.70;0.60;;;21.50;65.20;;;;;;6198996;28;20026;-67
2023/09/04 08:44:10;;;;;;;0.98;0.60;;;21.50;65.20;;;;;;6198492;28;20019;-68
2023/09/04 08:47:14;;;;;;;0.70;0.63;;;21.50;65.20;;;;;;6198447;28;20050;-67
2023/09/04 08:50:16;;;;;;;0.70;0.60;;;21.50;65.20;;;;;;6198884;28;20038;-69
2023/09/04 08:53:17;;;;;;;1.10;0.60;;;21.50;65.20;;;;;;6198027;28;20477;-69
2023/09/04 08:56:18;;;;;;;0.93;0.70;;;21.50;65.20;;;;;;6198473;28;20026;-69
2023/09/04 08:59:19;;;;;;;0.88;0.70;;;21.50;65.30;;;;;;6197485;28;20015;-69
2023/09/04 09:02:20;;;;;;;0.47;0.47;;;21.50;65.20;;;;;;6199142;28;20440;-69
2023/09/04 09:05:21;;;;;;;0.70;0.52;;;21.50;65.20;;;;;;6197411;28;20121;-69
2023/09/04 09:08:24;;;;;;;0.95;0.60;;;21.50;65.20;;;;;;6198207;28;20102;-69
2023/09/04 09:11:24;;;;;;;0.65;0.50;;;21.50;65.50;;;;;;6197995;28;20026;-69
2023/09/04 09:14:29;;;;;;;1.23;0.70;;;21.50;65.10;;;;;;6197856;28;20137;-69
2023/09/04 09:17:29;;;;;;;0.43;0.43;;;21.50;65.10;;;;;;6197259;28;20481;-68
2023/09/04 09:20:39;;;;;;;1.02;0.68;;;21.50;65.10;;;;;;6197801;28;20023;-69
2023/09/04 09:23:39;;;;;;;0.63;0.57;;;21.50;65.10;;;;;;6197399;28;20101;-68
2023/09/04 09:26:43;;;;;;;0.77;0.50;;;21.50;65.20;;;;;;6197867;28;20034;-69
2023/09/04 09:29:44;;;;;;;0.50;0.50;;;21.50;65.10;;;;;;6197514;28;20409;-69
2023/09/04 09:32:45;;;;;;;0.50;0.50;;;21.50;65.10;;;;;;6197624;28;20496;-69
2023/09/04 09:35:45;;;;;;;1.00;0.60;;;21.50;65.20;;;;;;6196569;28;20125;-69
2023/09/04 09:38:46;;;;;;;1.35;0.90;;;21.50;65.20;;;;;;6197438;28;20105;-69
2023/09/04 09:41:47;;;;;;;0.90;0.70;;;21.50;65.10;;;;;;6197687;28;20022;-69
2023/09/04 09:44:48;;;;;;;0.73;0.60;;;21.50;65.10;;;;;;6196962;28;20060;-69
2023/09/04 09:47:51;;;;;;;1.23;0.70;;;21.50;65.10;;;;;;6197241;28;20026;-68
2023/09/04 09:50:53;;;;;;;0.82;0.50;;;21.50;65.00;;;;;;6196650;28;20033;-69
2023/09/04 09:53:54;;;;;;;0.75;0.60;;;21.50;65.20;;;;;;6197001;28;20065;-69
2023/09/04 09:56:55;;;;;;;0.88;0.65;;;21.50;65.20;;;;;;6196327;28;20073;-69
2023/09/04 09:59:56;;;;;;;0.98;0.63;;;21.50;65.20;;;;;;6196788;28;20105;-69
2023/09/04 10:02:57;;;;;;;0.40;0.40;;;21.50;65.20;;;;;;6197001;28;20569;-69
2023/09/04 10:06:02;;;;;;;0.80;0.60;;;21.50;65.20;;;;;;6196552;28;20022;-67
2023/09/04 10:09:07;;;;;;;0.60;0.60;;;21.50;65.20;;;;;;6196439;28;20031;-69
2023/09/04 10:12:16;;;;;;;0.93;0.63;;;21.50;65.20;;;;;;6196283;28;20035;-69
2023/09/04 10:15:28;;;;;;;0.52;0.50;;;21.50;65.20;;;;;;6195999;28;20046;-69
2023/09/04 10:18:31;;;;;;;0.90;0.45;;;21.50;65.20;;;;;;6196422;28;20437;-68
2023/09/04 10:21:46;;;;;;;0.50;0.40;;;21.50;65.20;;;;;;6196341;28;20434;-69
2023/09/04 10:25:03;;;;;;;1.10;0.80;;;21.50;65.20;;;;;;6196008;28;20053;-68
2023/09/04 10:28:09;;;;;;;0.68;0.50;;;21.50;65.20;;;;;;6196258;28;20026;-69
2023/09/04 10:31:10;;;;;;;1.23;0.60;;;21.50;65.20;;;;;;6195829;28;20117;-68
2023/09/04 10:34:11;;;;;;;0.50;0.50;;;21.50;65.20;;;;;;6196284;28;20089;-69
2023/09/04 10:37:12;;;;;;;0.50;0.45;;;21.50;65.20;;;;;;6195667;28;20114;-69
2023/09/04 10:40:14;;;;;;;0.88;0.40;;;21.50;65.20;;;;;;6196744;28;20018;-68
2023/09/04 10:43:15;;;;;;;0.70;0.68;;;21.50;65.20;;;;;;6195346;28;20033;-69
2023/09/04 10:46:16;;;;;;;0.93;0.50;;;21.50;65.20;;;;;;6195565;28;20026;-69
2023/09/04 10:49:31;;;;;;;0.70;0.50;;;21.50;65.20;;;;;;6196361;28;20033;-69
2023/09/04 10:52:43;;;;;;;0.98;0.60;;;21.50;65.20;;;;;;6195496;28;20474;-69
2023/09/04 10:56:10;;;;;;;0.55;0.45;;;21.50;65.20;;;;;;6195577;28;20755;-68
2023/09/04 10:59:10;;;;;;;0.50;0.50;;;21.50;65.10;;;;;;6195898;28;20109;-69
2023/09/04 11:02:25;;;;;;;0.30;0.30;;;21.50;65.20;;;;;;6195449;28;20396;-68
2023/09/04 11:05:26;;;;;;;0.85;0.60;;;21.50;65.20;;;;;;6195674;28;20022;-69
2023/09/04 11:08:28;;;;;;;0.60;0.50;;;21.50;65.10;;;;;;6195897;28;20427;-68
2023/09/04 11:11:29;;;;;;;0.85;0.60;;;21.50;65.10;;;;;;6195524;28;20023;-69
2023/09/04 11:14:32;;;;;;;0.50;0.50;;;21.50;65.10;;;;;;6195456;28;20082;-69
2023/09/04 11:17:33;;;;;;;0.30;0.30;;;21.50;65.10;;;;;;6194686;28;20030;-68
2023/09/04 11:20:45;;;;;;;0.50;0.50;;;21.50;65.10;;;;;;6196494;28;20373;-68
2023/09/04 11:23:45;;;;;;;0.63;0.45;;;21.50;65.10;;;;;;6200186;28;20042;-68
2023/09/04 11:26:46;;;;;;;0.57;0.40;;;21.50;65.10;;;;;;6200436;28;20357;-68
2023/09/04 11:29:47;;;;;;;0.50;0.50;;;21.50;65.00;;;;;;6199858;28;20031;-68
2023/09/04 11:32:48;;;;;;;0.38;0.38;;;21.50;65.00;;;;;;6200144;28;20496;-69
2023/09/04 11:36:03;;;;;;;0.38;0.38;;;21.50;65.00;;;;;;6200189;28;20022;-69
2023/09/04 11:39:06;;;;;;;0.85;0.40;;;21.50;65.00;;;;;;6200003;28;20026;-68
2023/09/04 11:42:06;;;;;;;0.50;0.50;;;21.50;65.00;;;;;;6200080;28;20031;-68
2023/09/04 11:45:08;;;;;;;0.70;0.57;;;21.50;65.80;;;;;;6199971;28;20023;-68
2023/09/04 11:48:08;;;;;;;0.50;0.40;;;21.50;65.00;;;;;;6199674;28;20130;-70
2023/09/04 11:51:10;;;;;;;0.73;0.57;;;21.50;65.00;;;;;;6199382;28;20018;-68
2023/09/04 11:54:11;;;;;;;0.70;0.55;;;21.50;65.10;;;;;;6199483;28;20030;-69
2023/09/04 11:57:12;;;;;;;0.45;0.43;;;21.50;65.00;;;;;;6199581;28;20073;-69
2023/09/04 12:00:13;;;;;;;0.50;0.32;;;21.50;65.00;;;;;;6199441;28;20038;-68
2023/09/04 12:03:14;;;;;;;0.55;0.50;;;21.50;65.00;;;;;;6199473;28;20401;-69
2023/09/04 12:06:14;;;;;;;0.50;0.40;;;21.50;65.00;;;;;;6199567;28;20439;-69
2023/09/04 12:09:15;;;;;;;0.40;0.40;;;21.50;65.00;;;;;;6199374;28;20072;-68
2023/09/04 12:12:16;;;;;;;0.40;0.40;;;21.50;65.10;;;;;;6199526;28;20489;-68
2023/09/04 12:15:30;;;;;;;0.50;0.43;;;21.50;65.00;;;;;;6198793;28;20035;-68
2023/09/04 12:18:37;;;;;;;0.67;0.67;;;21.50;65.10;;;;;;6198773;28;20108;-68
2023/09/04 12:21:38;;;;;;;0.60;0.50;;;21.50;65.00;;;;;;6199451;28;20633;-69
2023/09/04 12:24:38;;;;;;;0.75;0.47;;;21.50;65.00;;;;;;6198802;28;20057;-68
2023/09/04 12:27:39;;;;;;;0.38;0.38;;;21.50;65.00;;;;;;6199209;28;20109;-69
2023/09/04 12:30:46;;;;;;;0.55;0.32;;;21.50;65.00;;;;;;6198924;28;20394;-69
2023/09/04 12:33:47;;;;;;;0.50;0.50;;;21.50;65.00;;;;;;6197766;28;20034;-69
2023/09/04 12:36:54;;;;;;;0.50;0.40;;;21.50;65.00;;;;;;6187145;28;20038;-69
2023/09/04 12:39:55;;;;;;;0.52;0.40;;;21.50;65.00;;;;;;6193332;28;20397;-68
2023/09/04 12:42:56;;;;;;;0.65;0.60;;;21.50;64.90;;;;;;6196246;28;20062;-69
2023/09/04 12:45:56;;;;;;;0.68;0.60;;;21.50;65.00;;;;;;6201225;28;20057;-69
2023/09/04 12:48:57;;;;;;;0.80;0.50;;;21.50;65.00;;;;;;6204862;28;20033;-68
2023/09/04 12:51:58;;;;;;;0.80;0.40;;;21.50;65.00;;;;;;6202201;28;20014;-69
2023/09/04 12:54:58;;;;;;;0.47;0.40;;;21.50;65.00;;;;;;6199143;28;20026;-69
2023/09/04 12:58:05;;;;;;;0.47;0.32;;;21.50;65.10;;;;;;6196571;28;20081;-69
2023/09/04 13:01:06;;;;;;;0.38;0.38;;;21.50;65.20;;;;;;6196381;28;20031;-69
2023/09/04 13:04:07;;;;;;;0.57;0.40;;;21.50;65.10;;;;;;6199521;28;20058;-69
2023/09/04 13:07:08;;;;;;;0.60;0.40;;;21.50;65.10;;;;;;6193734;28;20027;-68
2023/09/04 13:10:09;;;;;;;0.65;0.50;;;21.50;65.10;;;;;;6206965;28;20038;-69
2023/09/04 13:13:10;;;;;;;0.38;0.38;;;21.50;65.20;;;;;;6195623;28;20053;-69
2023/09/04 13:16:11;;;;;;;0.40;0.40;;;21.50;65.20;;;;;;6195604;28;20403;-69
2023/09/04 13:19:13;;;;;;;0.70;0.50;;;21.50;65.20;;;;;;6195226;28;20532;-69
2023/09/04 13:22:14;;;;;;;0.60;0.40;;;21.50;65.20;;;;;;6194790;28;20334;-68
2023/09/04 13:25:14;;;;;;;0.85;0.55;;;21.50;65.20;;;;;;6201536;28;20030;-68
2023/09/04 13:28:15;;;;;;;0.35;0.30;;;21.50;66.10;;;;;;6193458;28;20019;-69
2023/09/04 13:31:18;;;;;;;0.30;0.30;;;21.50;65.20;;;;;;6201061;28;20026;-68
2023/09/04 13:34:19;;;;;;;0.82;0.60;;;21.50;65.20;;;;;;6200254;28;20480;-69
2023/09/04 13:37:19;;;;;;;0.30;0.30;;;21.50;65.20;;;;;;6193571;28;20034;-68
2023/09/04 13:40:20;;;;;;;0.63;0.60;;;21.50;65.30;;;;;;6192857;28;20026;-69
2023/09/04 13:43:20;;;;;;;0.50;0.47;;;21.50;65.20;;;;;;6193016;28;20026;-69
2023/09/04 13:46:21;;;;;;;3.00;0.50;;;21.50;65.30;;;;;;6192284;28;20101;-68
2023/09/04 13:49:22;;;;;;;0.45;0.45;;;21.50;66.10;;;;;;6201789;28;20022;-69
2023/09/04 13:52:23;;;;;;;0.88;0.50;;;21.50;65.20;;;;;;6192913;28;20504;-68
2023/09/04 13:55:24;;;;;;;0.32;0.32;;;21.50;65.20;;;;;;6199312;28;20087;-69
2023/09/04 13:58:25;;;;;;;0.47;0.47;;;21.50;65.20;;;;;;6192147;28;20034;-69
2023/09/04 14:01:26;;;;;;;0.43;0.40;;;21.50;65.20;;;;;;6193181;28;20026;-69
2023/09/04 14:04:27;;;;;;;0.52;0.50;;;21.50;65.20;;;;;;6193019;28;20395;-68
2023/09/04 14:07:28;;;;;;;0.70;0.50;;;21.50;65.20;;;;;;6192221;28;20114;-69
2023/09/04 14:10:28;;;;;;;0.40;0.40;;;21.50;65.30;;;;;;6192685;28;20033;-69
2023/09/04 14:13:30;;;;;;;0.52;0.50;;;21.50;65.30;;;;;;6192778;28;20062;-69
2023/09/04 14:16:30;;;;;;;0.50;0.40;;;21.50;65.20;;;;;;6199417;28;20030;-69
2023/09/04 14:19:31;;;;;;;0.60;0.30;;;21.50;65.30;;;;;;6192215;28;20033;-69
2023/09/04 14:22:31;;;;;;;0.60;0.50;;;21.50;65.30;;;;;;6200024;28;20076;-69
2023/09/04 14:25:32;;;;;;;0.80;0.60;;;21.50;65.20;;;;;;6193208;28;20030;-69
2023/09/04 14:28:34;;;;;;;0.68;0.55;;;21.50;65.20;;;;;;6198762;28;20385;-69
2023/09/04 14:31:35;;;;;;;0.45;0.40;;;21.50;65.30;;;;;;6206416;28;20040;-69
2023/09/04 14:34:36;;;;;;;0.73;0.50;;;21.50;65.20;;;;;;6190897;28;20046;-69
2023/09/04 14:37:37;;;;;;;0.50;0.40;;;21.50;65.20;;;;;;6191316;28;20465;-69
2023/09/04 14:40:44;;;;;;;0.60;0.50;;;21.50;65.20;;;;;;6194707;28;20022;-69
2023/09/04 14:43:45;;;;;;;0.30;0.30;;;21.50;65.20;;;;;;6207569;28;20108;-69
2023/09/04 14:46:46;;;;;;;0.55;0.50;;;21.50;65.20;;;;;;6194386;28;20026;-69
2023/09/04 14:49:50;;;;;;;0.75;0.40;;;21.50;65.20;;;;;;6203110;28;20045;-69
2023/09/04 14:52:51;;;;;;;1.77;0.57;;;21.50;65.30;;;;;;6191472;28;20035;-69
2023/09/04 14:55:58;;;;;;;1.17;0.50;;;21.50;65.20;;;;;;6190043;28;20392;-69
2023/09/04 14:58:59;;;;;;;0.93;0.50;;;21.50;65.20;;;;;;6199167;28;20388;-69
2023/09/04 15:02:00;;;;;;;0.50;0.40;;;21.50;65.20;;;;;;6191627;28;20030;-68
2023/09/04 15:05:00;;;;;;;1.65;0.60;;;21.50;65.20;;;;;;6199336;28;20037;-69
2023/09/04 15:08:01;;;;;;;1.30;0.70;;;21.50;65.20;;;;;;6190898;28;20643;-69
2023/09/04 15:11:03;;;;;;;0.93;0.40;;;21.50;65.20;;;;;;6191273;28;20030;-68
2023/09/04 15:14:03;;;;;;;0.70;0.50;;;21.50;65.20;;;;;;6190473;28;20340;-69
2023/09/04 15:17:04;;;;;;;0.77;0.55;;;21.50;65.30;;;;;;6191098;28;20033;-68
2023/09/04 15:20:05;;;;;;;0.60;0.50;;;21.50;65.30;;;;;;6191302;28;20026;-69
2023/09/04 15:23:05;;;;;;;1.30;0.70;;;21.50;65.20;;;;;;6199525;28;20038;-69
2023/09/04 15:26:06;;;;;;;1.08;0.70;;;21.50;65.30;;;;;;6196388;28;20019;-69
2023/09/04 15:29:07;;;;;;;1.55;0.50;;;21.50;65.30;;;;;;6196933;28;20069;-69
2023/09/04 15:32:08;;;;;;;3.53;0.60;;;21.50;65.30;;;;;;6191624;28;20432;-69
2023/09/04 15:35:08;;;;;;;0.73;0.45;;;21.50;65.30;;;;;;6198916;28;20057;-68
2023/09/04 15:38:09;;;;;;;0.68;0.63;;;21.50;65.30;;;;;;6190615;28;20022;-69
2023/09/04 15:41:10;;;;;;;0.52;0.43;;;21.50;65.30;;;;;;6190481;28;20097;-68
2023/09/04 15:44:11;;;;;;;1.65;0.50;;;21.50;66.10;;;;;;6191085;28;20061;-68
2023/09/04 15:47:12;;;;;;;0.95;0.50;;;21.50;65.30;;;;;;6192533;28;20477;-69